X  Chiuso Dati meteorologici dell'aviazione (METAR)     EHRD Rotterdam The Hague Airport
Temperatura
17°C Temperatura
12°C Punto di rugiada
73% Umidità



Vento
5 KM/O
3 MPH
1 M/S
3 KTS



40°
NE
Condizioni attuali

Chiaro Chiaro
Pressione 1024.92 (hPa) - 30.27 (inHg)
Visibilità 6.2 (miglio) - 10 (km)
Aeroporto
Codice-Aeroporto EHRD

Posizione: Rotterdam The Hague Airport
Distanza: 16 (km)

Metar:
EHRD 132055Z AUTO 04003KT 9999 NCD 17/12 Q1025 NOSIG

Ore: 13-06-2021 22:55 CEST